Startpagina
METAR-TAF:

METAR-TAF

Vliegvelden :

Sheridan County Airport

Sheridan, Wyoming, Verenigde Staten

breedte: 44-46-10N, lengte: 106-58-08W, hoogte: 1225 m

Actueel weer

Dit bericht is 1 uur en het 7 minuten geleden gemaakt, om 05:53 UTC
Wind 3 kt uit het noorden
Temperatuur -2°C
Vochtigheid 69%
Druk 1014 hPa
Zicht: 16.1 km
Onbewolkt

METAR: KSHR 070553Z AUTO 01003KT 10SM CLR M02/M07 A2995 RMK AO2 SLP164 T10221067 10039 21033 56016

Tijdstip: 00:00 (07:00 UTC)

Verwachting

Dit bericht is 1 uur en het 35 minuten geleden gemaakt, om 05:25 UTC
Verwachting geldig van 07 om 06 UTC tot 08 om 06 UTC
Wind kt uit het noorden
Zicht: 10 km
Onbewolkt
Van 07 om 1000 UTC
Wind 5 kt uit het westen
Zicht: 10 km
Verspreide wolken op 7000 ft
Gebroken wolken op 12000 ft
Van 07 om 1900 UTC
Wind 7 kt uit het noordwesten
Zicht: 10 km
Verspreide wolken op 10000 ft
Gebroken wolken op 20000 ft

TAF: KSHR 070525Z 0706/0806 00000KT P6SM SKC FM071000 28005KT P6SM SCT070 BKN120 FM071900 31007KT P6SM SCT100 BKN200

Waarnemingen en weersverwachtingen van meer dan 4000 vliegvelden (METAR en TAF).

De beschikbare stations zijn de gele en rode punten op de kaart.

Ga met uw muis naar het station om de naam te zien.

Klik dan om waarnemingen en weersverwachtingen te zien.

kaart wijzigen: klik op de groene knoppen met een zwart kruis om in te zoomen, op de groene knop met een streepje om uit te zoomen of op de groene pijlen voor aangrenzende kaarten.


METAR-TAF: